createdAt,value
2023-04-18T00:00:18.410Z,23.88
2023-04-18T00:02:46.231Z,23.87
2023-04-18T00:05:13.795Z,23.87
2023-04-18T00:07:41.284Z,23.87
2023-04-18T00:10:08.985Z,23.87
2023-04-18T00:12:36.441Z,23.88
2023-04-18T00:15:04.428Z,23.87
2023-04-18T00:17:32.900Z,23.87
2023-04-18T00:20:02.323Z,23.87
2023-04-18T00:22:30.881Z,23.86
2023-04-18T00:24:58.541Z,23.86
2023-04-18T00:27:26.201Z,23.85
2023-04-18T00:29:53.590Z,23.83
2023-04-18T00:32:21.294Z,23.82
2023-04-18T00:34:48.725Z,23.82
2023-04-18T00:37:16.141Z,23.79
2023-04-18T00:39:43.852Z,23.80
2023-04-18T00:42:11.283Z,23.79
2023-04-18T00:44:38.679Z,23.79
2023-04-18T00:47:06.413Z,23.80
2023-04-18T00:49:33.821Z,23.80
2023-04-18T00:52:01.220Z,23.78
2023-04-18T00:54:28.902Z,23.78
2023-04-18T00:56:57.084Z,23.77
2023-04-18T00:59:24.501Z,23.79
2023-04-18T01:02:10.589Z,23.79
2023-04-18T01:04:38.590Z,23.78
2023-04-18T01:07:09.766Z,23.75
2023-04-18T01:09:37.198Z,23.76
2023-04-18T01:12:04.753Z,23.75
2023-04-18T01:14:32.597Z,23.74
2023-04-18T01:16:59.982Z,23.74
2023-04-18T01:19:27.376Z,23.75
2023-04-18T01:21:55.082Z,23.75
2023-04-18T01:24:25.792Z,23.76
2023-04-18T01:26:53.254Z,23.74
2023-04-18T01:29:20.968Z,23.74
2023-04-18T01:31:48.464Z,23.73
2023-04-18T01:34:17.881Z,23.73
2023-04-18T01:36:46.014Z,23.74
2023-04-18T01:39:13.467Z,23.74
2023-04-18T01:41:41.888Z,23.74
2023-04-18T01:44:10.296Z,23.72
2023-04-18T01:46:39.982Z,23.72
2023-04-18T01:49:08.081Z,23.71
2023-04-18T01:51:35.839Z,23.71
2023-04-18T01:54:03.304Z,23.71
2023-04-18T01:56:31.286Z,23.70
2023-04-18T01:59:00.030Z,23.70
2023-04-18T02:01:27.459Z,23.70
2023-04-18T02:03:55.498Z,23.70
2023-04-18T02:06:23.124Z,23.68
2023-04-18T02:08:50.562Z,23.68
2023-04-18T02:11:18.379Z,23.70
2023-04-18T02:13:45.921Z,23.68
2023-04-18T02:16:13.792Z,23.68
2023-04-18T02:18:43.815Z,23.68
2023-04-18T02:21:11.909Z,23.68
2023-04-18T02:23:39.567Z,23.68
2023-04-18T02:26:06.963Z,23.69
2023-04-18T02:28:34.418Z,23.67
2023-04-18T02:31:04.043Z,23.67
2023-04-18T02:33:34.670Z,23.67
2023-04-18T02:36:02.105Z,23.67
2023-04-18T02:38:29.834Z,23.66
2023-04-18T02:40:57.678Z,23.66
2023-04-18T02:43:25.139Z,23.66
2023-04-18T02:45:52.966Z,23.66
2023-04-18T02:48:20.561Z,23.66
2023-04-18T02:50:48.239Z,23.66
2023-04-18T02:53:17.076Z,23.66
2023-04-18T02:55:45.923Z,23.65
2023-04-18T02:58:13.497Z,23.65
2023-04-18T03:00:42.969Z,23.65
2023-04-18T03:03:12.792Z,23.65
2023-04-18T03:05:40.408Z,23.65
2023-04-18T03:08:08.357Z,23.64
2023-04-18T03:10:35.994Z,23.64
2023-04-18T03:13:03.998Z,23.64
2023-04-18T03:15:31.754Z,23.64
2023-04-18T03:17:59.543Z,23.64
2023-04-18T03:20:27.869Z,23.63
2023-04-18T03:22:56.692Z,23.63
2023-04-18T03:25:24.509Z,23.62
2023-04-18T03:27:52.202Z,23.62
2023-04-18T03:30:20.530Z,23.61
2023-04-18T03:32:49.202Z,23.62
2023-04-18T03:35:16.704Z,23.61
2023-04-18T03:37:44.569Z,23.62
2023-04-18T03:40:13.257Z,23.62
2023-04-18T03:42:41.259Z,23.62
2023-04-18T03:45:11.253Z,23.60
2023-04-18T03:47:39.231Z,23.61
2023-04-18T03:50:07.045Z,23.61
2023-04-18T03:52:35.003Z,23.59
2023-04-18T03:55:04.913Z,23.61
2023-04-18T03:57:33.215Z,23.61
2023-04-18T04:00:05.096Z,23.60
2023-04-18T04:02:43.103Z,23.69
2023-04-18T04:05:11.478Z,23.62
2023-04-18T04:07:39.192Z,23.59
2023-04-18T04:10:07.328Z,23.57
2023-04-18T04:12:35.854Z,23.57
2023-04-18T04:15:03.487Z,23.57
2023-04-18T04:17:31.582Z,23.57
2023-04-18T04:19:59.416Z,23.58
2023-04-18T04:22:28.068Z,23.57
2023-04-18T04:24:57.804Z,23.57
2023-04-18T04:27:26.922Z,23.58
2023-04-18T04:29:56.556Z,23.59
2023-04-18T04:32:25.286Z,23.58
2023-04-18T04:34:54.031Z,23.57
2023-04-18T04:37:21.661Z,23.57
2023-04-18T04:39:52.297Z,23.57
2023-04-18T04:42:25.120Z,23.58
2023-04-18T04:44:54.311Z,23.58
2023-04-18T04:47:22.373Z,23.57
2023-04-18T04:49:49.833Z,23.57
2023-04-18T04:52:17.340Z,23.57
2023-04-18T04:54:46.667Z,23.59
2023-04-18T04:57:15.550Z,23.60
2023-04-18T04:59:44.371Z,23.59
2023-04-18T05:02:12.236Z,23.60
2023-04-18T05:04:55.450Z,23.59
2023-04-18T05:07:23.429Z,23.60
2023-04-18T05:09:53.207Z,23.58
2023-04-18T05:12:20.614Z,23.59
2023-04-18T05:14:48.300Z,23.59
2023-04-18T05:17:15.805Z,23.59
2023-04-18T05:19:44.261Z,23.58
2023-04-18T05:22:12.017Z,23.57
2023-04-18T05:24:39.564Z,23.57
2023-04-18T05:27:07.186Z,23.56
2023-04-18T05:29:35.883Z,23.57
2023-04-18T05:32:04.258Z,23.57
2023-04-18T05:34:32.010Z,23.57
2023-04-18T05:36:59.692Z,23.59
2023-04-18T05:39:27.460Z,23.58
2023-04-18T05:41:54.853Z,23.56
2023-04-18T05:44:24.168Z,23.57
2023-04-18T05:46:52.056Z,23.57
2023-04-18T05:49:19.626Z,23.58
2023-04-18T05:51:49.718Z,23.59
2023-04-18T05:54:17.192Z,23.59
2023-04-18T05:56:44.647Z,23.63
2023-04-18T05:59:12.454Z,23.61
2023-04-18T06:01:39.980Z,23.62
2023-04-18T06:04:08.682Z,23.64
2023-04-18T06:06:36.277Z,23.65
2023-04-18T06:09:03.809Z,23.67
2023-04-18T06:11:33.611Z,23.67
2023-04-18T06:14:01.288Z,23.69
2023-04-18T06:16:29.753Z,23.70
2023-04-18T06:19:00.905Z,23.71
2023-04-18T06:21:28.920Z,23.72
2023-04-18T06:23:56.601Z,23.73
2023-04-18T06:26:24.544Z,23.76
2023-04-18T06:28:51.949Z,23.76
2023-04-18T06:31:19.655Z,23.77
2023-04-18T06:33:47.147Z,23.77
2023-04-18T06:36:14.541Z,23.79
2023-04-18T06:38:42.237Z,23.80
2023-04-18T06:41:09.812Z,23.80
2023-04-18T06:43:38.018Z,23.82
2023-04-18T06:46:06.048Z,23.81
2023-04-18T06:48:33.634Z,23.82
2023-04-18T06:51:01.059Z,23.82
2023-04-18T06:53:28.703Z,23.82
2023-04-18T06:55:56.107Z,23.82
2023-04-18T06:58:23.577Z,23.83
2023-04-18T07:00:52.183Z,23.82
2023-04-18T07:03:19.759Z,23.82
2023-04-18T07:05:47.447Z,23.82
2023-04-18T07:08:15.221Z,23.82
2023-04-18T07:10:42.780Z,23.82
2023-04-18T07:13:10.198Z,23.82
2023-04-18T07:15:37.974Z,23.81
2023-04-18T07:18:05.521Z,23.82
2023-04-18T07:20:32.929Z,23.80
2023-04-18T07:23:00.628Z,23.81
2023-04-18T07:25:28.181Z,23.81
2023-04-18T07:27:55.866Z,23.81
2023-04-18T07:30:23.603Z,23.80
2023-04-18T07:32:51.210Z,23.79
2023-04-18T07:35:19.007Z,23.80
2023-04-18T07:37:46.704Z,23.79
2023-04-18T07:40:14.436Z,23.78
2023-04-18T07:42:43.226Z,23.79
2023-04-18T07:45:11.112Z,23.78
2023-04-18T07:47:38.620Z,23.77
2023-04-18T07:50:06.558Z,23.77
2023-04-18T07:52:34.523Z,23.76
2023-04-18T07:55:01.935Z,23.76
2023-04-18T07:57:29.353Z,23.77
2023-04-18T07:59:57.012Z,23.77
2023-04-18T08:02:24.552Z,23.75
2023-04-18T08:04:52.550Z,23.74
2023-04-18T08:07:20.248Z,23.75
2023-04-18T08:09:48.274Z,23.74
2023-04-18T08:12:16.009Z,23.73
2023-04-18T08:14:43.417Z,23.73
2023-04-18T08:17:10.822Z,23.74
2023-04-18T08:19:38.500Z,23.73
2023-04-18T08:22:10.297Z,23.73
2023-04-18T08:24:38.509Z,23.73
2023-04-18T08:27:05.934Z,23.74
2023-04-18T08:29:33.543Z,23.74
2023-04-18T08:32:01.349Z,23.73
2023-04-18T08:34:29.404Z,23.74
2023-04-18T08:36:56.828Z,23.71
2023-04-18T08:39:25.383Z,23.70
2023-04-18T08:41:59.713Z,23.66
2023-04-18T08:44:27.973Z,23.66
2023-04-18T08:46:56.001Z,23.65
2023-04-18T08:49:24.948Z,23.64
2023-04-18T08:51:53.814Z,23.62
2023-04-18T08:54:22.536Z,23.62
2023-04-18T08:57:10.563Z,23.62
2023-04-18T08:59:40.152Z,23.64
2023-04-18T09:02:09.073Z,23.62
2023-04-18T09:04:41.417Z,23.62
2023-04-18T09:07:10.277Z,23.60
2023-04-18T09:09:47.879Z,23.59
2023-04-18T09:12:26.338Z,23.59
2023-04-18T09:14:57.767Z,23.56
2023-04-18T09:17:34.735Z,23.56
2023-04-18T09:20:06.276Z,23.59
2023-04-18T09:22:46.307Z,23.55
2023-04-18T09:25:42.708Z,23.54
2023-04-18T09:28:31.838Z,23.55
2023-04-18T09:31:09.426Z,23.54
2023-04-18T09:33:37.445Z,23.49
2023-04-18T09:36:17.979Z,23.47
2023-04-18T09:38:45.916Z,23.45
2023-04-18T09:41:15.653Z,23.39
2023-04-18T09:43:46.332Z,23.37
2023-04-18T09:46:14.193Z,23.38
2023-04-18T09:48:41.972Z,23.37
2023-04-18T09:51:14.996Z,23.34
2023-04-18T09:53:47.566Z,23.32
2023-04-18T09:56:19.891Z,23.29
2023-04-18T09:58:47.754Z,23.26
2023-04-18T10:01:15.212Z,23.22
2023-04-18T10:03:45.541Z,23.21
2023-04-18T10:06:14.407Z,23.18
2023-04-18T10:08:41.754Z,23.28
2023-04-18T10:11:09.490Z,23.20
2023-04-18T10:13:38.256Z,23.19
2023-04-18T10:16:06.846Z,23.17
2023-04-18T10:18:35.275Z,23.16
2023-04-18T10:21:03.489Z,23.14
2023-04-18T10:23:35.643Z,23.14
2023-04-18T10:26:07.529Z,23.10
2023-04-18T10:29:09.038Z,23.08
2023-04-18T10:31:38.817Z,23.11
2023-04-18T10:34:07.013Z,23.07
2023-04-18T10:36:34.490Z,23.09
2023-04-18T10:39:19.988Z,23.06
2023-04-18T10:41:51.446Z,23.05
2023-04-18T10:44:20.114Z,23.07
2023-04-18T10:46:53.330Z,23.06
2023-04-18T10:49:23.930Z,23.07
2023-04-18T10:51:58.424Z,23.07
2023-04-18T10:54:30.836Z,23.08
2023-04-18T10:56:59.509Z,23.08
2023-04-18T10:59:27.200Z,23.08
2023-04-18T11:01:56.626Z,23.09
2023-04-18T11:04:25.245Z,23.09
2023-04-18T11:06:55.959Z,23.12
2023-04-18T11:09:23.425Z,23.08
2023-04-18T11:12:10.852Z,23.09
2023-04-18T11:14:42.801Z,23.08
2023-04-18T11:17:23.896Z,23.06
2023-04-18T11:19:59.701Z,23.06
2023-04-18T11:22:27.259Z,23.04
2023-04-18T11:25:02.041Z,23.04
2023-04-18T11:27:29.477Z,23.03
2023-04-18T11:29:57.260Z,23.06
2023-04-18T11:32:24.798Z,23.06
2023-04-18T11:34:55.488Z,23.07
2023-04-18T11:37:23.160Z,23.08
2023-04-18T11:39:52.241Z,23.11
2023-04-18T11:42:19.783Z,23.09
2023-04-18T11:44:47.780Z,23.11
2023-04-18T11:47:28.931Z,23.13
2023-04-18T11:49:57.914Z,23.13
2023-04-18T11:52:29.698Z,23.12
2023-04-18T11:54:58.632Z,23.12
2023-04-18T11:57:30.359Z,23.13
2023-04-18T11:59:59.183Z,23.12
2023-04-18T12:02:28.028Z,23.14
2023-04-18T12:04:59.528Z,23.16
2023-04-18T12:07:35.052Z,23.19
2023-04-18T12:10:23.457Z,23.22
2023-04-18T12:12:51.731Z,23.24
2023-04-18T12:15:19.530Z,23.24
2023-04-18T12:17:51.950Z,23.23
2023-04-18T12:20:20.384Z,23.24
2023-04-18T12:22:49.581Z,23.25
2023-04-18T12:25:24.351Z,23.28
2023-04-18T12:27:54.469Z,23.31
2023-04-18T12:30:23.015Z,23.32
2023-04-18T12:32:52.082Z,23.32
2023-04-18T12:35:20.031Z,23.31
2023-04-18T12:37:48.324Z,23.33
2023-04-18T12:40:16.051Z,23.30
2023-04-18T12:42:43.841Z,23.32
2023-04-18T12:45:13.695Z,23.31
2023-04-18T12:47:41.775Z,23.30
2023-04-18T12:50:11.479Z,23.32
2023-04-18T12:52:39.666Z,23.32
2023-04-18T12:55:07.750Z,23.33
2023-04-18T12:57:36.498Z,23.33
2023-04-18T13:00:13.768Z,23.35
2023-04-18T13:02:43.353Z,23.35
2023-04-18T13:05:12.319Z,23.37
2023-04-18T13:07:40.910Z,23.39
2023-04-18T13:10:12.797Z,23.40
2023-04-18T13:12:40.837Z,23.43
2023-04-18T13:15:11.449Z,23.44
2023-04-18T13:17:39.467Z,23.46
2023-04-18T13:20:10.006Z,23.46
2023-04-18T13:22:37.814Z,23.47
2023-04-18T13:25:07.149Z,23.49
2023-04-18T13:27:34.682Z,23.50
2023-04-18T13:30:02.533Z,23.52
2023-04-18T13:32:31.595Z,23.50
2023-04-18T13:34:59.051Z,23.51
2023-04-18T13:37:26.495Z,23.51
2023-04-18T13:39:54.171Z,23.52
2023-04-18T13:42:21.666Z,23.52
2023-04-18T13:44:50.086Z,23.52
2023-04-18T13:47:18.470Z,23.52
2023-04-18T13:49:46.084Z,23.52
2023-04-18T13:52:13.473Z,23.51
2023-04-18T13:54:41.728Z,23.52
2023-04-18T13:57:11.489Z,23.52
2023-04-18T13:59:42.007Z,23.52
2023-04-18T14:02:10.009Z,23.52
2023-04-18T14:04:38.256Z,23.52
2023-04-18T14:07:06.450Z,23.51
2023-04-18T14:09:34.101Z,23.51
2023-04-18T14:12:02.154Z,23.51
2023-04-18T14:14:29.736Z,23.52
2023-04-18T14:16:57.168Z,23.51
2023-04-18T14:19:25.076Z,23.51
2023-04-18T14:21:52.485Z,23.53
2023-04-18T14:24:20.031Z,23.52
2023-04-18T14:26:48.088Z,23.51
2023-04-18T14:29:16.036Z,23.52
2023-04-18T14:31:43.675Z,23.50
2023-04-18T14:34:11.457Z,23.52
2023-04-18T14:36:39.882Z,23.50
2023-04-18T14:39:07.286Z,23.51
2023-04-18T14:41:34.933Z,23.50
2023-04-18T14:44:03.923Z,23.50
2023-04-18T14:46:31.544Z,23.50
2023-04-18T14:48:59.931Z,23.51
2023-04-18T14:51:27.676Z,23.50
2023-04-18T14:53:55.653Z,23.50
2023-04-18T14:56:24.309Z,23.50
2023-04-18T14:58:51.744Z,23.50
2023-04-18T15:01:19.487Z,23.50
2023-04-18T15:03:47.368Z,23.50
2023-04-18T15:06:14.841Z,23.50
2023-04-18T15:08:44.156Z,23.50
2023-04-18T15:11:11.872Z,23.49
2023-04-18T15:13:40.045Z,23.50
2023-04-18T15:16:07.837Z,23.50
2023-04-18T15:18:35.789Z,23.49
2023-04-18T15:21:03.391Z,23.48
2023-04-18T15:23:30.818Z,23.48
2023-04-18T15:25:59.391Z,23.49
2023-04-18T15:28:26.876Z,23.50
2023-04-18T15:30:54.271Z,23.48
2023-04-18T15:33:25.076Z,23.49
2023-04-18T15:35:52.566Z,23.47
2023-04-18T15:38:19.938Z,23.47
2023-04-18T15:40:47.704Z,23.47
2023-04-18T15:43:17.209Z,23.47
2023-04-18T15:45:45.034Z,23.47
2023-04-18T15:48:13.268Z,23.47
2023-04-18T15:50:42.154Z,23.48
2023-04-18T15:53:09.654Z,23.47
2023-04-18T15:55:37.420Z,23.45
2023-04-18T15:58:05.080Z,23.46
2023-04-18T16:00:32.518Z,23.46
2023-04-18T16:03:00.375Z,23.45
2023-04-18T16:05:27.823Z,23.45
2023-04-18T16:07:56.237Z,23.45
2023-04-18T16:10:23.976Z,23.44
2023-04-18T16:12:51.454Z,23.43
2023-04-18T16:15:18.914Z,23.41
2023-04-18T16:17:46.591Z,23.42
2023-04-18T16:20:13.968Z,23.41
2023-04-18T16:22:41.391Z,23.41
2023-04-18T16:25:09.560Z,23.41
2023-04-18T16:27:37.025Z,23.40
2023-04-18T16:30:05.239Z,23.41
2023-04-18T16:32:32.969Z,23.40
2023-04-18T16:35:00.435Z,23.39
2023-04-18T16:37:27.869Z,23.39
2023-04-18T16:39:55.684Z,23.39
2023-04-18T16:42:23.134Z,23.38
2023-04-18T16:44:50.733Z,23.38
2023-04-18T16:47:19.293Z,23.38
2023-04-18T16:49:48.025Z,23.39
2023-04-18T16:52:16.597Z,23.39
2023-04-18T16:54:44.888Z,23.38
2023-04-18T16:57:12.580Z,23.38
2023-04-18T16:59:42.504Z,23.38
2023-04-18T17:02:10.319Z,23.37
2023-04-18T17:04:38.029Z,23.37
2023-04-18T17:07:05.954Z,23.38
2023-04-18T17:09:33.608Z,23.37
2023-04-18T17:12:02.023Z,23.37
2023-04-18T17:14:29.644Z,23.36
2023-04-18T17:16:57.498Z,23.37
2023-04-18T17:19:26.665Z,23.37
2023-04-18T17:21:54.604Z,23.37
2023-04-18T17:24:22.752Z,23.38
2023-04-18T17:26:51.537Z,23.38
2023-04-18T17:29:19.508Z,23.37
2023-04-18T17:31:47.655Z,23.37
2023-04-18T17:34:15.115Z,23.38
2023-04-18T17:36:42.940Z,23.39
2023-04-18T17:39:11.239Z,23.40
2023-04-18T17:41:39.296Z,23.39
2023-04-18T17:44:07.795Z,23.43
2023-04-18T17:46:36.387Z,23.44
2023-04-18T17:49:05.054Z,23.45
2023-04-18T17:51:37.596Z,23.45
2023-04-18T17:54:05.530Z,23.45
2023-04-18T17:56:33.952Z,23.47
2023-04-18T17:59:02.855Z,23.48
2023-04-18T18:01:31.805Z,23.49
2023-04-18T18:04:03.673Z,23.49
2023-04-18T18:06:33.419Z,23.51
2023-04-18T18:09:01.799Z,23.50
2023-04-18T18:11:29.750Z,23.53
2023-04-18T18:13:57.971Z,23.53
2023-04-18T18:16:27.318Z,23.53
2023-04-18T18:18:56.362Z,23.54
2023-04-18T18:21:26.847Z,23.56
2023-04-18T18:23:55.783Z,23.56
2023-04-18T18:26:26.935Z,23.57
2023-04-18T18:28:55.399Z,23.57
2023-04-18T18:31:25.323Z,23.57
2023-04-18T18:33:54.965Z,23.57
2023-04-18T18:36:25.075Z,23.57
2023-04-18T18:38:53.284Z,23.58
2023-04-18T18:41:26.135Z,23.59
2023-04-18T18:43:55.141Z,23.58
2023-04-18T18:46:24.571Z,23.61
2023-04-18T18:48:52.790Z,23.60
2023-04-18T18:51:21.293Z,23.62
2023-04-18T18:53:49.208Z,23.62
2023-04-18T18:56:17.067Z,23.62
2023-04-18T18:58:46.527Z,23.63
2023-04-18T19:01:15.218Z,23.63
2023-04-18T19:03:44.909Z,23.64
2023-04-18T19:06:16.154Z,23.64
2023-04-18T19:08:44.463Z,23.66
2023-04-18T19:11:13.235Z,23.65
2023-04-18T19:13:41.914Z,23.66
2023-04-18T19:16:10.742Z,23.66
2023-04-18T19:18:38.607Z,23.66
2023-04-18T19:21:07.104Z,23.67
2023-04-18T19:23:37.498Z,23.67
2023-04-18T19:26:05.972Z,23.68
2023-04-18T19:28:35.563Z,23.70
2023-04-18T19:31:04.300Z,23.71
2023-04-18T19:33:35.998Z,23.71
2023-04-18T19:36:09.345Z,23.70
2023-04-18T19:38:37.540Z,23.70
2023-04-18T19:41:09.255Z,23.72
2023-04-18T19:43:38.466Z,23.71
2023-04-18T19:46:06.715Z,23.71
2023-04-18T19:48:35.395Z,23.72
2023-04-18T19:51:14.524Z,23.71
2023-04-18T19:53:43.184Z,23.71
2023-04-18T19:56:14.172Z,23.73
2023-04-18T19:58:47.198Z,23.73
2023-04-18T20:01:21.744Z,23.71
2023-04-18T20:03:52.829Z,23.72
2023-04-18T20:06:22.307Z,23.71
2023-04-18T20:08:51.737Z,23.70
2023-04-18T20:11:20.449Z,23.70
2023-04-18T20:13:49.480Z,23.71
2023-04-18T20:16:17.889Z,23.68
2023-04-18T20:18:47.269Z,23.71
2023-04-18T20:21:19.073Z,23.69
2023-04-18T20:23:48.156Z,23.70
2023-04-18T20:26:16.421Z,23.70
2023-04-18T20:28:46.102Z,23.70
2023-04-18T20:31:14.984Z,23.68
2023-04-18T20:33:43.742Z,23.69
2023-04-18T20:36:12.152Z,23.68
2023-04-18T20:38:40.451Z,23.68
2023-04-18T20:41:10.821Z,23.67
2023-04-18T20:43:38.625Z,23.66
2023-04-18T20:46:07.345Z,23.66
2023-04-18T20:48:34.978Z,23.65
2023-04-18T20:51:03.239Z,23.64
2023-04-18T20:53:31.086Z,23.63
2023-04-18T20:55:58.592Z,23.62
2023-04-18T20:58:26.519Z,23.61
2023-04-18T21:00:54.285Z,23.59
2023-04-18T21:03:22.311Z,23.60
2023-04-18T21:05:49.865Z,23.58
2023-04-18T21:08:17.515Z,23.58
2023-04-18T21:10:44.889Z,23.57
2023-04-18T21:13:12.684Z,23.56
2023-04-18T21:15:41.918Z,23.57
2023-04-18T21:18:09.490Z,23.55
2023-04-18T21:20:37.234Z,23.55
2023-04-18T21:23:05.118Z,23.55
2023-04-18T21:25:32.688Z,23.55
2023-04-18T21:28:00.299Z,23.54
2023-04-18T21:30:28.490Z,23.54
2023-04-18T21:32:55.950Z,23.54
2023-04-18T21:35:24.774Z,23.53
2023-04-18T21:37:52.887Z,23.54
2023-04-18T21:40:20.400Z,23.55
2023-04-18T21:42:50.908Z,23.54
2023-04-18T21:45:18.614Z,23.52
2023-04-18T21:47:46.753Z,23.52
2023-04-18T21:50:14.253Z,23.52
2023-04-18T21:52:42.931Z,23.51
2023-04-18T21:55:10.362Z,23.51
2023-04-18T21:57:37.768Z,23.51
2023-04-18T22:00:08.487Z,23.50
2023-04-18T22:02:37.338Z,23.51
2023-04-18T22:05:05.638Z,23.52
2023-04-18T22:07:34.180Z,23.54
2023-04-18T22:10:05.776Z,23.54
2023-04-18T22:12:34.249Z,23.55
2023-04-18T22:15:01.692Z,23.54
2023-04-18T22:17:29.986Z,23.54
2023-04-18T22:19:57.778Z,23.54
2023-04-18T22:22:25.141Z,23.53
2023-04-18T22:24:52.606Z,23.53
2023-04-18T22:27:20.324Z,23.53
2023-04-18T22:29:47.764Z,23.52
2023-04-18T22:32:15.210Z,23.50
2023-04-18T22:34:42.855Z,23.50
2023-04-18T22:37:10.318Z,23.49
2023-04-18T22:39:37.731Z,23.49
2023-04-18T22:42:05.959Z,23.50
2023-04-18T22:44:33.331Z,23.50
2023-04-18T22:47:00.851Z,23.49
2023-04-18T22:49:28.583Z,23.50
2023-04-18T22:51:56.945Z,23.48
2023-04-18T22:54:24.408Z,23.48
2023-04-18T22:56:52.080Z,23.48
2023-04-18T22:59:19.580Z,23.48
2023-04-18T23:01:47.038Z,23.49
2023-04-18T23:04:15.122Z,23.49
2023-04-18T23:06:42.822Z,23.49
2023-04-18T23:09:10.372Z,23.48
2023-04-18T23:11:38.068Z,23.48
2023-04-18T23:14:06.377Z,23.48
2023-04-18T23:16:33.743Z,23.48
2023-04-18T23:19:01.385Z,23.48
2023-04-18T23:21:28.898Z,23.47
2023-04-18T23:23:56.311Z,23.47
2023-04-18T23:26:25.252Z,23.47
2023-04-18T23:28:53.048Z,23.47
2023-04-18T23:31:20.489Z,23.47
2023-04-18T23:33:48.169Z,23.46
2023-04-18T23:36:15.567Z,23.45
2023-04-18T23:38:43.040Z,23.44
2023-04-18T23:41:10.739Z,23.46
2023-04-18T23:43:38.133Z,23.45
2023-04-18T23:46:05.594Z,23.45
2023-04-18T23:48:33.277Z,23.45
2023-04-18T23:51:00.754Z,23.45
2023-04-18T23:53:28.207Z,23.45
2023-04-18T23:55:55.912Z,23.42
2023-04-18T23:58:23.336Z,23.42
